Time;durP1;ratioP1;P1;durP2;ratioP2;P2;SDS_P1;SDS_P2;PMS_P1;PMS_P2;Temp;Humidity;BMP_temperature;BMP_pressure;BME280_temperature;BME280_humidity;BME280_pressure;Samples;Min_cycle;Max_cycle;Signal;HPM_P1;HPM_P2
2024/03/14 00:01:22;;;;;;;;;;;;;;;9.75;88.09;98449.03;5048046;28;19917;-80
2024/03/14 00:03:47;;;;;;;;;;;;;;;9.70;87.54;98449.56;5039536;28;20384;-81
2024/03/14 00:06:13;;;;;;;;;;;;;;;9.70;88.11;98443.28;5051869;28;19917;-80
2024/03/14 00:08:38;;;;;;;;;;;;;;;9.74;87.42;98447.47;5050573;28;19917;-78
2024/03/14 00:11:05;;;;;;;;;;;;;;;9.77;87.13;98443.06;5050685;28;19921;-80
2024/03/14 00:13:31;;;;;;;;;;;;;;;9.67;88.95;98442.16;5051766;28;19956;-79
2024/03/14 00:15:56;;;;;;;;;;;;;;;9.70;88.84;98435.78;5050367;28;19971;-80
2024/03/14 00:18:21;;;;;;;;;;;;;;;9.65;89.35;98439.06;5050400;28;19923;-80
2024/03/14 00:20:47;;;;;;;;;;;;;;;9.57;90.83;98431.44;5050657;28;19956;-79
2024/03/14 00:23:13;;;;;;;;;;;;;;;9.53;92.12;98434.25;5050203;28;19916;-80
2024/03/14 00:25:40;;;;;;;;;;;;;;;9.52;94.03;98429.97;5037805;28;19917;-79
2024/03/14 00:28:09;;;;;;;;;;;;;;;9.51;96.44;98431.19;5051042;28;19924;-79
2024/03/14 00:30:34;;;;;;;;;;;;;;;9.50;96.35;98431.63;5037461;28;19917;-79
2024/03/14 00:33:00;;;;;;;;;;;;;;;9.48;95.74;98418.25;5054033;28;19931;-80
2024/03/14 00:35:25;;;;;;;;;;;;;;;9.43;95.94;98420.78;5051904;28;20374;-79
2024/03/14 00:37:51;;;;;;;;;;;;;;;9.38;97.01;98422.88;5049852;28;19925;-79
2024/03/14 00:40:18;;;;;;;;;;;;;;;9.33;97.05;98420.63;5050103;28;19924;-79
2024/03/14 00:42:45;;;;;;;;;;;;;;;9.38;97.66;98419.34;5050275;28;19913;-79
2024/03/14 00:45:12;;;;;;;;;;;;;;;9.30;95.91;98418.75;5036645;28;19913;-79
2024/03/14 00:47:37;;;;;;;;;;;;;;;9.31;96.33;98414.78;5050249;28;20730;-79
2024/03/14 00:50:10;;;;;;;;;;;;;;;9.30;96.34;98418.75;5050250;28;19955;-80
2024/03/14 00:52:36;;;;;;;;;;;;;;;9.30;97.28;98413.22;5051556;28;20288;-79
2024/03/14 00:55:01;;;;;;;;;;;;;;;9.32;96.66;98415.56;5053536;28;19921;-79
2024/03/14 00:57:28;;;;;;;;;;;;;;;9.26;96.25;98412.56;5044464;28;19976;-79
2024/03/14 00:59:53;;;;;;;;;;;;;;;9.31;96.17;98411.25;5050915;28;19917;-80
2024/03/14 01:02:19;;;;;;;;;;;;;;;9.29;97.31;98413.66;5054009;28;19917;-79
2024/03/14 01:04:45;;;;;;;;;;;;;;;9.25;96.53;98415.75;5053151;28;19978;-79
2024/03/14 01:07:11;;;;;;;;;;;;;;;9.28;95.74;98410.13;5053941;28;19924;-80
2024/03/14 01:09:36;;;;;;;;;;;;;;;9.30;96.18;98412.44;5053761;28;19920;-80
2024/03/14 01:12:01;;;;;;;;;;;;;;;9.35;95.83;98400.88;5044159;28;19925;-80
2024/03/14 01:14:26;;;;;;;;;;;;;;;9.32;95.84;98405.31;5049878;28;19925;-80
2024/03/14 01:16:52;;;;;;;;;;;;;;;9.30;94.91;98404.94;5055342;28;19920;-80
2024/03/14 01:19:18;;;;;;;;;;;;;;;9.37;94.68;98410.28;5041052;28;19925;-78
2024/03/14 01:21:43;;;;;;;;;;;;;;;9.42;94.23;98402.69;5053880;28;19916;-79
2024/03/14 01:24:10;;;;;;;;;;;;;;;9.41;93.59;98401.91;5054542;28;19916;-79
2024/03/14 01:26:35;;;;;;;;;;;;;;;9.43;92.98;98405.00;5054836;28;19916;-81
2024/03/14 01:29:01;;;;;;;;;;;;;;;9.33;94.95;98406.06;5040036;28;20309;-80
2024/03/14 01:31:26;;;;;;;;;;;;;;;9.31;95.11;98406.50;5052970;28;19992;-81
2024/03/14 01:33:52;;;;;;;;;;;;;;;9.33;94.59;98397.81;5053349;28;19975;-79
2024/03/14 01:36:17;;;;;;;;;;;;;;;9.33;96.48;98398.59;5052939;28;19916;-80
2024/03/14 01:38:42;;;;;;;;;;;;;;;9.35;97.12;98398.13;5039776;28;19975;-80
2024/03/14 01:41:20;;;;;;;;;;;;;;;9.29;96.81;98399.88;5053286;28;20003;-80
2024/03/14 01:43:56;;;;;;;;;;;;;;;9.25;98.02;98390.94;5053079;28;19992;-80
2024/03/14 01:46:22;;;;;;;;;;;;;;;9.24;95.64;98401.19;5054174;28;19917;-78
2024/03/14 01:48:47;;;;;;;;;;;;;;;9.30;94.80;98404.19;5052970;28;20387;-79
2024/03/14 01:51:12;;;;;;;;;;;;;;;9.37;95.18;98398.47;5053277;28;19924;-79
2024/03/14 01:53:38;;;;;;;;;;;;;;;9.35;95.11;98398.91;5047654;28;20004;-79
2024/03/14 01:56:04;;;;;;;;;;;;;;;9.31;95.21;98391.94;5034480;28;19924;-78
2024/03/14 01:58:29;;;;;;;;;;;;;;;9.30;95.51;98393.16;5051370;28;19981;-78
2024/03/14 02:00:55;;;;;;;;;;;;;;;9.31;95.24;98389.97;5052853;28;19960;-79
2024/03/14 02:03:21;;;;;;;;;;;;;;;9.28;95.55;98395.59;5039429;28;19917;-78
2024/03/14 02:05:50;;;;;;;;;;;;;;;9.27;95.66;98392.06;5052698;28;19923;-78
2024/03/14 02:08:16;;;;;;;;;;;;;;;9.29;96.34;98386.09;5046871;28;20345;-79
2024/03/14 02:10:41;;;;;;;;;;;;;;;9.31;95.75;98391.94;5044661;28;20006;-78
2024/03/14 02:13:06;;;;;;;;;;;;;;;9.36;96.22;98392.19;5052386;28;19971;-78
2024/03/14 02:15:33;;;;;;;;;;;;;;;9.33;96.48;98389.53;5053185;28;20380;-79
2024/03/14 02:17:59;;;;;;;;;;;;;;;9.30;95.76;98391.16;5052438;28;19917;-79
2024/03/14 02:20:24;;;;;;;;;;;;;;;9.35;95.39;98387.88;5052291;28;20694;-80
2024/03/14 02:22:49;;;;;;;;;;;;;;;9.24;97.03;98389.38;5035225;28;19917;-79
2024/03/14 02:25:15;;;;;;;;;;;;;;;9.28;96.43;98390.06;5043458;28;20312;-79
2024/03/14 02:27:40;;;;;;;;;;;;;;;9.34;96.19;98382.81;5052222;28;19920;-78
2024/03/14 02:30:06;;;;;;;;;;;;;;;9.31;95.23;98386.44;5051996;28;19916;-79
2024/03/14 02:32:32;;;;;;;;;;;;;;;9.33;96.65;98384.03;5051446;28;19924;-80
2024/03/14 02:34:58;;;;;;;;;;;;;;;9.28;96.19;98384.56;5052197;28;19963;-79
2024/03/14 02:37:23;;;;;;;;;;;;;;;9.24;97.62;98376.38;5051922;28;19912;-78
2024/03/14 02:39:48;;;;;;;;;;;;;;;9.31;95.46;98378.16;5052204;28;20058;-78
2024/03/14 02:42:14;;;;;;;;;;;;;;;9.37;95.93;98382.72;5051663;28;20011;-78
2024/03/14 02:44:40;;;;;;;;;;;;;;;9.29;95.48;98373.06;5051992;28;19916;-79
2024/03/14 02:47:07;;;;;;;;;;;;;;;9.32;95.34;98376.97;5039298;28;20307;-79
2024/03/14 02:49:32;;;;;;;;;;;;;;;9.27;95.06;98375.50;5051986;28;19917;-79
2024/03/14 02:51:58;;;;;;;;;;;;;;;9.24;96.95;98381.09;5051684;28;19917;-78
2024/03/14 02:54:24;;;;;;;;;;;;;;;9.18;97.35;98383.63;5053252;28;19966;-77
2024/03/14 02:56:49;;;;;;;;;;;;;;;9.23;97.83;98379.56;5053145;28;20399;-79
2024/03/14 02:59:19;;;;;;;;;;;;;;;9.24;97.42;98375.59;5053157;28;20375;-78
2024/03/14 03:01:44;;;;;;;;;;;;;;;9.27;97.55;98381.03;5051971;28;20011;-79
2024/03/14 03:04:09;;;;;;;;;;;;;;;9.28;96.80;98395.59;5039676;28;19960;-79
2024/03/14 03:06:36;;;;;;;;;;;;;;;9.24;95.86;98395.66;5052058;28;19956;-80
2024/03/14 03:09:04;;;;;;;;;;;;;;;9.32;94.52;98396.25;5052695;28;19958;-80
2024/03/14 03:11:32;;;;;;;;;;;;;;;9.39;94.38;98394.09;5058094;28;19968;-79
2024/03/14 03:13:57;;;;;;;;;;;;;;;9.35;93.18;98395.38;5052418;28;19920;-79
2024/03/14 03:16:24;;;;;;;;;;;;;;;9.35;93.70;98398.13;5050115;28;19924;-79
2024/03/14 03:18:49;;;;;;;;;;;;;;;9.45;93.34;98396.31;5052854;28;19917;-80
2024/03/14 03:21:14;;;;;;;;;;;;;;;9.52;93.28;98399.66;5050950;28;19921;-79
2024/03/14 03:23:39;;;;;;;;;;;;;;;9.62;93.33;98386.75;5039810;28;20018;-78
2024/03/14 03:26:06;;;;;;;;;;;;;;;9.65;93.10;98389.41;5050670;28;19920;-80
2024/03/14 03:28:31;;;;;;;;;;;;;;;9.61;93.44;98393.47;5051114;28;20431;-80
2024/03/14 03:30:57;;;;;;;;;;;;;;;9.65;93.81;98388.63;5050602;28;19952;-81
2024/03/14 03:33:23;;;;;;;;;;;;;;;9.62;92.98;98387.53;5040701;28;20306;-80
2024/03/14 03:35:48;;;;;;;;;;;;;;;9.64;91.38;98393.41;5049483;28;20003;-80
2024/03/14 03:38:14;;;;;;;;;;;;;;;9.69;91.40;98384.56;5051340;28;20008;-79
2024/03/14 03:40:43;;;;;;;;;;;;;;;9.59;91.77;98391.16;5031861;28;19921;-78
2024/03/14 03:43:09;;;;;;;;;;;;;;;9.64;91.13;98390.63;5031089;28;19921;-79
2024/03/14 03:45:34;;;;;;;;;;;;;;;9.69;91.06;98389.31;5037107;28;19916;-79
2024/03/14 03:48:00;;;;;;;;;;;;;;;9.67;90.77;98400.78;5051017;28;19970;-80
2024/03/14 03:50:25;;;;;;;;;;;;;;;9.69;90.51;98395.59;5050665;28;19923;-79
2024/03/14 03:52:51;;;;;;;;;;;;;;;9.72;90.20;98400.25;5050843;28;19924;-82
2024/03/14 03:55:17;;;;;;;;;;;;;;;9.74;90.10;98402.56;5044984;28;19921;-80
2024/03/14 03:57:43;;;;;;;;;;;;;;;9.75;89.94;98409.63;5042867;28;20362;-78
2024/03/14 04:00:32;;;;;;;;;;;;;;;9.74;90.41;98406.09;5050285;28;19924;-78
2024/03/14 04:02:55;;;;;;;;;;;;;;;9.74;91.47;98395.06;5051708;28;19917;-80
2024/03/14 04:05:20;;;;;;;;;;;;;;;9.74;89.76;98403.34;5050460;28;19917;-79
2024/03/14 04:07:46;;;;;;;;;;;;;;;9.71;90.53;98398.69;5050342;28;19916;-78
2024/03/14 04:10:11;;;;;;;;;;;;;;;9.76;91.87;98411.94;5050240;28;19925;-80
2024/03/14 04:12:37;;;;;;;;;;;;;;;9.72;92.02;98404.97;5048873;28;20273;-79
2024/03/14 04:15:02;;;;;;;;;;;;;;;9.62;92.28;98406.84;5040783;28;19924;-79
2024/03/14 04:17:27;;;;;;;;;;;;;;;9.60;92.94;98408.47;5051492;28;20385;-78
2024/03/14 04:19:53;;;;;;;;;;;;;;;9.66;93.14;98410.25;5050631;28;19917;-78
2024/03/14 04:22:19;;;;;;;;;;;;;;;9.72;92.62;98411.28;5037147;28;19918;-79
2024/03/14 04:24:45;;;;;;;;;;;;;;;9.72;92.14;98416.78;5049708;28;20377;-78
2024/03/14 04:27:10;;;;;;;;;;;;;;;9.75;93.31;98412.38;5037615;28;19983;-80
2024/03/14 04:29:35;;;;;;;;;;;;;;;9.77;93.50;98413.47;5054333;28;19920;-79
2024/03/14 04:32:03;;;;;;;;;;;;;;;9.76;92.51;98425.72;5054954;28;19967;-79
2024/03/14 04:34:28;;;;;;;;;;;;;;;9.70;92.47;98426.72;5054595;28;19951;-78
2024/03/14 04:36:53;;;;;;;;;;;;;;;9.73;87.51;98434.13;5054299;28;20372;-78
2024/03/14 04:39:19;;;;;;;;;;;;;;;9.73;88.01;98434.88;5053891;28;19916;-78
2024/03/14 04:41:47;;;;;;;;;;;;;;;9.82;88.53;98426.75;5055440;28;20377;-78
2024/03/14 04:44:14;;;;;;;;;;;;;;;9.89;87.99;98427.75;5054106;28;20007;-80
2024/03/14 04:46:41;;;;;;;;;;;;;;;9.87;89.60;98430.19;5054413;28;20102;-78
2024/03/14 04:49:08;;;;;;;;;;;;;;;9.93;88.95;98436.72;5053905;28;19916;-80
2024/03/14 04:51:33;;;;;;;;;;;;;;;9.84;87.32;98429.06;5053712;28;19924;-78
2024/03/14 04:53:59;;;;;;;;;;;;;;;9.90;87.53;98432.84;5053671;28;19917;-80
2024/03/14 04:56:24;;;;;;;;;;;;;;;9.87;87.54;98433.72;5052389;28;20377;-78
2024/03/14 04:58:50;;;;;;;;;;;;;;;9.82;87.54;98450.03;5033748;28;19921;-78
2024/03/14 05:01:15;;;;;;;;;;;;;;;9.88;86.54;98449.06;5050287;28;20015;-78
2024/03/14 05:03:40;;;;;;;;;;;;;;;9.77;89.36;98441.06;5054126;28;19948;-79
2024/03/14 05:06:07;;;;;;;;;;;;;;;9.73;89.21;98450.66;5053525;28;19942;-78
2024/03/14 05:08:32;;;;;;;;;;;;;;;9.79;90.14;98438.66;5053833;28;19916;-79
2024/03/14 05:10:57;;;;;;;;;;;;;;;9.67;90.72;98447.66;5053492;28;19957;-78
2024/03/14 05:13:23;;;;;;;;;;;;;;;9.76;90.68;98450.56;5054067;28;19921;-79
2024/03/14 05:15:48;;;;;;;;;;;;;;;9.87;90.95;98452.25;5061086;28;20316;-79
2024/03/14 05:18:14;;;;;;;;;;;;;;;9.92;90.87;98451.72;5054662;28;19924;-79
2024/03/14 05:20:39;;;;;;;;;;;;;;;10.01;89.95;98449.84;5053055;28;19928;-80
2024/03/14 05:23:05;;;;;;;;;;;;;;;10.10;88.91;98452.75;5053532;28;19924;-79
2024/03/14 05:25:30;;;;;;;;;;;;;;;10.14;89.70;98455.41;5052930;28;19974;-80
2024/03/14 05:27:55;;;;;;;;;;;;;;;10.13;90.23;98464.88;5046870;28;20281;-78
2024/03/14 05:30:23;;;;;;;;;;;;;;;10.23;91.46;98458.31;5046916;28;19920;-78
2024/03/14 05:32:48;;;;;;;;;;;;;;;10.32;90.87;98465.94;5026959;28;20007;-80
2024/03/14 05:35:14;;;;;;;;;;;;;;;10.32;91.25;98469.47;5053370;28;20372;-80
2024/03/14 05:37:41;;;;;;;;;;;;;;;10.41;89.36;98469.63;5041858;28;19934;-79
2024/03/14 05:40:10;;;;;;;;;;;;;;;10.50;88.61;98475.25;5052110;28;19921;-80
2024/03/14 05:42:35;;;;;;;;;;;;;;;10.51;86.65;98481.53;5053421;28;19917;-81
2024/03/14 05:45:01;;;;;;;;;;;;;;;10.38;87.07;98484.28;5041159;28;19971;-80
2024/03/14 05:47:27;;;;;;;;;;;;;;;10.10;91.08;98476.81;5029562;28;19921;-79
2024/03/14 05:49:52;;;;;;;;;;;;;;;10.09;92.61;98480.78;5030752;28;19917;-80
2024/03/14 05:52:18;;;;;;;;;;;;;;;10.08;89.95;98482.78;5026007;28;20011;-80
2024/03/14 05:54:44;;;;;;;;;;;;;;;10.15;88.64;98490.84;5054144;28;19912;-81
2024/03/14 05:57:09;;;;;;;;;;;;;;;10.38;89.20;98494.56;5052816;28;20510;-80
2024/03/14 05:59:37;;;;;;;;;;;;;;;10.35;86.99;98489.94;5052501;28;20388;-81
2024/03/14 06:02:02;;;;;;;;;;;;;;;10.46;87.48;98491.16;5052859;28;20011;-81
2024/03/14 06:04:29;;;;;;;;;;;;;;;10.50;88.24;98491.03;5053029;28;20003;-80
2024/03/14 06:06:55;;;;;;;;;;;;;;;10.90;87.66;98492.16;5040653;28;19923;-80
2024/03/14 06:09:31;;;;;;;;;;;;;;;11.30;86.80;98494.41;5053028;28;19916;-80
2024/03/14 06:11:57;;;;;;;;;;;;;;;11.52;85.24;98492.47;5038443;28;20045;-80
2024/03/14 06:14:23;;;;;;;;;;;;;;;11.75;83.76;98491.31;5052162;28;20345;-81
2024/03/14 06:16:49;;;;;;;;;;;;;;;11.81;81.08;98495.06;5027678;28;19939;-81
2024/03/14 06:19:14;;;;;;;;;;;;;;;11.92;80.41;98502.97;5051872;28;19913;-81
2024/03/14 06:21:45;;;;;;;;;;;;;;;12.02;77.54;98496.28;5033068;28;20012;-82
2024/03/14 06:24:10;;;;;;;;;;;;;;;11.94;76.48;98500.50;5044310;28;19917;-79
2024/03/14 06:26:39;;;;;;;;;;;;;;;12.14;76.60;98512.03;5023527;28;19924;-81
2024/03/14 06:29:04;;;;;;;;;;;;;;;12.35;76.90;98502.19;5029808;28;19920;-79
2024/03/14 06:31:29;;;;;;;;;;;;;;;12.52;75.98;98511.81;5032007;28;19921;-79
2024/03/14 06:33:56;;;;;;;;;;;;;;;12.63;73.67;98512.19;5032091;28;20404;-82
2024/03/14 06:36:23;;;;;;;;;;;;;;;12.37;71.48;98517.13;5024459;28;19913;-82
2024/03/14 06:38:49;;;;;;;;;;;;;;;12.57;70.68;98517.53;5045122;28;19939;-80
2024/03/14 06:41:15;;;;;;;;;;;;;;;12.81;72.38;98517.81;5052468;28;20385;-82
2024/03/14 06:43:42;;;;;;;;;;;;;;;12.42;69.91;98521.28;5052057;28;19960;-82
2024/03/14 06:46:08;;;;;;;;;;;;;;;12.30;72.66;98522.16;5051784;28;19925;-81
2024/03/14 06:48:33;;;;;;;;;;;;;;;12.47;72.93;98521.50;5051544;28;19932;-80
2024/03/14 06:50:59;;;;;;;;;;;;;;;12.20;74.26;98527.63;5038742;28;19963;-81
2024/03/14 06:53:25;;;;;;;;;;;;;;;12.13;74.91;98518.81;5038870;28;19974;-80
2024/03/14 06:55:51;;;;;;;;;;;;;;;12.19;75.06;98517.78;5053110;28;19916;-82
2024/03/14 06:58:16;;;;;;;;;;;;;;;12.19;76.35;98523.31;5039267;28;19966;-80
2024/03/14 07:00:42;;;;;;;;;;;;;;;12.45;76.37;98528.72;5039459;28;20351;-81
2024/03/14 07:03:07;;;;;;;;;;;;;;;12.75;74.08;98530.72;5044917;28;19971;-80
2024/03/14 07:05:33;;;;;;;;;;;;;;;12.89;69.05;98530.16;5032605;28;19921;-80
2024/03/14 07:07:58;;;;;;;;;;;;;;;13.21;67.66;98530.91;5034064;28;19928;-81
2024/03/14 07:10:24;;;;;;;;;;;;;;;13.54;66.19;98528.38;5033468;28;19921;-81
2024/03/14 07:12:49;;;;;;;;;;;;;;;13.98;64.51;98528.84;5020266;28;19918;-83
2024/03/14 07:15:17;;;;;;;;;;;;;;;14.44;60.73;98533.16;5032254;28;19971;-82
2024/03/14 07:17:42;;;;;;;;;;;;;;;14.85;59.99;98539.97;5031589;28;20362;-81
2024/03/14 07:20:24;;;;;;;;;;;;;;;15.34;59.96;98536.03;5041841;28;20015;-82
2024/03/14 07:22:49;;;;;;;;;;;;;;;15.77;57.75;98538.28;5047582;28;19924;-82
2024/03/14 07:25:18;;;;;;;;;;;;;;;15.40;57.97;98534.16;5019751;28;20443;-81
2024/03/14 07:27:44;;;;;;;;;;;;;;;15.48;55.91;98536.13;5032046;28;19967;-80
2024/03/14 07:30:14;;;;;;;;;;;;;;;15.84;56.76;98535.13;5032230;28;19917;-81
2024/03/14 07:32:40;;;;;;;;;;;;;;;15.86;56.47;98524.25;5024367;28;19925;-82
2024/03/14 07:35:07;;;;;;;;;;;;;;;16.60;53.79;98521.59;5039245;28;20400;-81
2024/03/14 07:37:34;;;;;;;;;;;;;;;17.15;52.85;98521.72;5033066;28;19924;-83
2024/03/14 07:39:59;;;;;;;;;;;;;;;17.22;51.74;98524.09;5039463;28;19920;-81
2024/03/14 07:42:25;;;;;;;;;;;;;;;17.19;50.88;98527.06;5037566;28;20376;-84
2024/03/14 07:44:50;;;;;;;;;;;;;;;17.22;51.96;98526.13;5042905;28;19917;-83
2024/03/14 07:47:19;;;;;;;;;;;;;;;16.92;50.12;98525.41;5046194;28;20427;-81
2024/03/14 07:49:47;;;;;;;;;;;;;;;16.99;49.54;98531.38;5043117;28;19916;-81
2024/03/14 07:52:13;;;;;;;;;;;;;;;16.50;51.42;98537.63;5045088;28;19935;-82
2024/03/14 07:54:39;;;;;;;;;;;;;;;16.04;50.59;98540.06;5049783;28;19920;-82
2024/03/14 07:57:05;;;;;;;;;;;;;;;15.64;54.57;98532.19;5034974;28;19943;-83
2024/03/14 07:59:32;;;;;;;;;;;;;;;15.90;55.72;98526.13;5048397;28;20408;-81
2024/03/14 08:01:58;;;;;;;;;;;;;;;16.09;55.31;98536.63;5047596;28;19917;-84
2024/03/14 08:04:24;;;;;;;;;;;;;;;16.21;53.93;98532.03;5038676;28;20373;-81
2024/03/14 08:06:50;;;;;;;;;;;;;;;16.38;53.35;98529.56;5047983;28;19913;-83
2024/03/14 08:09:16;;;;;;;;;;;;;;;16.88;53.08;98528.38;5050222;28;19979;-81
2024/03/14 08:11:41;;;;;;;;;;;;;;;16.86;52.09;98533.72;5049912;28;19925;-81
2024/03/14 08:14:08;;;;;;;;;;;;;;;16.72;52.45;98542.84;5049874;28;20496;-81
2024/03/14 08:16:33;;;;;;;;;;;;;;;16.61;50.96;98539.88;5046503;28;20376;-81
2024/03/14 08:18:58;;;;;;;;;;;;;;;16.80;49.30;98535.63;5039715;28;19935;-84
2024/03/14 08:21:28;;;;;;;;;;;;;;;16.81;50.93;98531.59;5037907;28;19916;-81
2024/03/14 08:23:54;;;;;;;;;;;;;;;17.14;49.96;98536.16;5050187;28;19916;-81
2024/03/14 08:26:21;;;;;;;;;;;;;;;16.48;50.54;98540.13;5043875;28;19978;-81
2024/03/14 08:28:46;;;;;;;;;;;;;;;16.56;51.25;98549.66;5043575;28;20009;-81
2024/03/14 08:31:15;;;;;;;;;;;;;;;16.44;51.38;98533.22;5044106;28;19980;-81
2024/03/14 08:33:41;;;;;;;;;;;;;;;16.48;50.43;98544.94;5043936;28;19952;-82
2024/03/14 08:36:06;;;;;;;;;;;;;;;16.42;49.94;98532.91;5051149;28;19975;-81
2024/03/14 08:38:33;;;;;;;;;;;;;;;16.04;51.90;98533.72;5049450;28;19916;-82
2024/03/14 08:40:59;;;;;;;;;;;;;;;15.72;52.28;98533.38;5042757;28;20369;-82
2024/03/14 08:43:27;;;;;;;;;;;;;;;15.48;52.23;98541.69;5029922;28;19920;-81
2024/03/14 08:45:52;;;;;;;;;;;;;;;15.71;51.85;98544.97;5030340;28;19939;-80
2024/03/14 08:48:18;;;;;;;;;;;;;;;15.53;51.91;98539.53;5044353;28;20373;-80
2024/03/14 08:50:43;;;;;;;;;;;;;;;15.15;52.48;98524.25;5037782;28;19913;-80
2024/03/14 08:53:12;;;;;;;;;;;;;;;15.00;51.52;98523.41;5049829;28;19917;-80
2024/03/14 08:55:39;;;;;;;;;;;;;;;14.64;51.87;98522.28;5050781;28;19924;-81
2024/03/14 08:58:08;;;;;;;;;;;;;;;14.32;52.19;98524.97;5036452;28;19936;-81
2024/03/14 09:00:33;;;;;;;;;;;;;;;14.36;52.69;98517.22;5049885;28;19917;-81
2024/03/14 09:02:59;;;;;;;;;;;;;;;14.26;52.96;98516.47;5047764;28;19994;-80
2024/03/14 09:05:25;;;;;;;;;;;;;;;14.09;52.58;98520.81;5031018;28;20051;-80
2024/03/14 09:07:50;;;;;;;;;;;;;;;14.08;53.79;98517.28;5031366;28;20389;-83
2024/03/14 09:10:16;;;;;;;;;;;;;;;13.99;53.41;98511.72;5049564;28;20330;-80
2024/03/14 09:12:43;;;;;;;;;;;;;;;13.92;54.90;98511.28;5049249;28;19929;-80
2024/03/14 09:15:09;;;;;;;;;;;;;;;13.83;54.27;98514.81;5052895;28;19971;-84
2024/03/14 09:17:34;;;;;;;;;;;;;;;13.70;52.79;98506.63;5039842;28;19917;-80
2024/03/14 09:20:00;;;;;;;;;;;;;;;13.71;52.81;98505.41;5045219;28;19913;-80
2024/03/14 09:22:25;;;;;;;;;;;;;;;13.52;50.65;98511.38;5047005;28;19912;-80
2024/03/14 09:24:50;;;;;;;;;;;;;;;13.52;52.11;98512.16;5049945;28;19913;-82
2024/03/14 09:27:17;;;;;;;;;;;;;;;13.54;52.91;98509.72;5052317;28;19913;-79
2024/03/14 09:29:42;;;;;;;;;;;;;;;13.58;51.86;98501.22;5053145;28;19974;-82
2024/03/14 09:32:08;;;;;;;;;;;;;;;13.67;52.00;98517.91;5053981;28;19921;-80
2024/03/14 09:34:35;;;;;;;;;;;;;;;13.70;50.73;98512.19;5053092;28;19943;-80
2024/03/14 09:37:01;;;;;;;;;;;;;;;13.70;50.93;98500.31;5038187;28;19925;-80
2024/03/14 09:39:35;;;;;;;;;;;;;;;13.77;50.09;98511.88;5043825;28;19917;-82
2024/03/14 09:42:00;;;;;;;;;;;;;;;13.82;51.50;98502.16;5038962;28;19932;-80
2024/03/14 09:44:26;;;;;;;;;;;;;;;13.88;51.03;98505.84;5043812;28;19917;-84
2024/03/14 09:46:56;;;;;;;;;;;;;;;13.98;51.67;98499.06;5047167;28;20889;-80
2024/03/14 09:49:22;;;;;;;;;;;;;;;14.02;49.86;98498.91;5051853;28;19917;-81
2024/03/14 09:51:48;;;;;;;;;;;;;;;14.09;49.99;98496.59;5036090;28;19917;-82
2024/03/14 09:54:16;;;;;;;;;;;;;;;14.14;48.99;98495.97;5037314;28;20442;-80
2024/03/14 09:56:42;;;;;;;;;;;;;;;14.28;49.14;98502.91;5032701;28;19925;-78
2024/03/14 09:59:07;;;;;;;;;;;;;;;14.37;49.66;98504.88;5043650;28;19923;-83
2024/03/14 10:01:34;;;;;;;;;;;;;;;14.45;47.67;98501.34;5049732;28;19913;-79
2024/03/14 10:04:00;;;;;;;;;;;;;;;14.65;48.36;98496.00;5043389;28;19944;-82
2024/03/14 10:06:27;;;;;;;;;;;;;;;14.90;47.72;98500.41;5045718;28;20006;-81
2024/03/14 10:08:52;;;;;;;;;;;;;;;15.07;49.38;98500.78;5033538;28;20292;-82
2024/03/14 10:11:21;;;;;;;;;;;;;;;15.07;47.13;98504.31;5033040;28;20007;-78
2024/03/14 10:13:47;;;;;;;;;;;;;;;15.17;49.06;98495.94;5033292;28;20002;-79
2024/03/14 10:16:15;;;;;;;;;;;;;;;15.10;47.61;98494.28;5033186;28;19928;-78
2024/03/14 10:18:46;;;;;;;;;;;;;;;15.22;48.02;98493.28;5033016;28;19921;-81
2024/03/14 10:21:12;;;;;;;;;;;;;;;15.25;49.85;98502.72;5032969;28;19928;-80
2024/03/14 10:23:37;;;;;;;;;;;;;;;15.39;46.73;98502.75;5033228;28;19917;-79
2024/03/14 10:26:03;;;;;;;;;;;;;;;15.44;46.30;98502.09;5032611;28;19943;-81
2024/03/14 10:28:31;;;;;;;;;;;;;;;15.63;47.65;98497.22;5032869;28;19917;-78
2024/03/14 10:31:04;;;;;;;;;;;;;;;15.65;46.24;98496.75;5032856;28;20019;-79
2024/03/14 10:33:30;;;;;;;;;;;;;;;15.56;46.03;98491.22;5032798;28;20381;-79
2024/03/14 10:35:59;;;;;;;;;;;;;;;15.65;48.85;98499.53;5033076;28;19961;-80
2024/03/14 10:38:25;;;;;;;;;;;;;;;15.57;47.20;98506.69;5032383;28;19917;-79
2024/03/14 10:40:56;;;;;;;;;;;;;;;15.56;47.02;98496.78;5023041;28;19952;-80
2024/03/14 10:43:22;;;;;;;;;;;;;;;15.72;47.52;98502.72;5022882;28;19996;-81
2024/03/14 10:45:52;;;;;;;;;;;;;;;15.62;46.76;98506.03;5022060;28;19913;-82
2024/03/14 10:48:18;;;;;;;;;;;;;;;15.47;45.93;98503.19;5022360;28;19917;-83
2024/03/14 10:50:47;;;;;;;;;;;;;;;15.61;48.70;98507.31;5021650;28;20393;-80
2024/03/14 10:53:12;;;;;;;;;;;;;;;15.36;47.37;98508.53;5020558;28;19929;-82
2024/03/14 10:55:39;;;;;;;;;;;;;;;15.31;47.32;98512.69;5022218;28;19918;-81
2024/03/14 10:58:05;;;;;;;;;;;;;;;14.75;49.58;98507.88;5021775;28;19949;-81
2024/03/14 11:00:33;;;;;;;;;;;;;;;14.28;52.90;98514.00;5025735;28;19963;-82
2024/03/14 11:02:59;;;;;;;;;;;;;;;13.70;55.81;98514.97;5022992;28;19925;-85
2024/03/14 11:05:25;;;;;;;;;;;;;;;13.50;57.70;98511.09;5027965;28;19912;-82
2024/03/14 11:07:53;;;;;;;;;;;;;;;13.28;60.18;98519.53;5031604;28;20059;-82
2024/03/14 11:10:31;;;;;;;;;;;;;;;13.12;62.82;98511.44;5023449;28;19921;-83
2024/03/14 11:13:26;;;;;;;;;;;;;;;13.05;63.51;98512.50;5022783;28;20401;-82
2024/03/14 11:15:54;;;;;;;;;;;;;;;12.98;64.91;98513.56;5045068;28;20180;-81
2024/03/14 11:18:22;;;;;;;;;;;;;;;12.75;67.67;98514.09;5027616;28;19917;-81
2024/03/14 11:20:53;;;;;;;;;;;;;;;12.63;71.13;98526.81;5023800;28;20329;-80
2024/03/14 11:23:20;;;;;;;;;;;;;;;12.29;73.76;98529.69;5023534;28;19932;-83
2024/03/14 11:25:49;;;;;;;;;;;;;;;11.96;77.71;98521.00;5035813;28;20294;-81
2024/03/14 11:28:15;;;;;;;;;;;;;;;11.67;77.90;98520.41;5035589;28;19917;-81
2024/03/14 11:30:49;;;;;;;;;;;;;;;11.53;76.60;98545.81;5022663;28;20394;-82
2024/03/14 11:33:15;;;;;;;;;;;;;;;11.64;78.04;98543.44;5025610;28;20774;-81
2024/03/14 11:35:43;;;;;;;;;;;;;;;11.77;76.23;98539.44;5025613;28;19934;-80
2024/03/14 11:38:15;;;;;;;;;;;;;;;11.78;76.06;98537.47;5023770;28;20380;-81
2024/03/14 11:40:40;;;;;;;;;;;;;;;11.85;73.49;98539.22;5023634;28;19921;-80
2024/03/14 11:43:06;;;;;;;;;;;;;;;11.90;72.67;98535.84;5022185;28;19932;-80
2024/03/14 11:45:31;;;;;;;;;;;;;;;11.80;72.60;98535.81;5022932;28;19921;-82
2024/03/14 11:47:57;;;;;;;;;;;;;;;11.86;73.95;98533.22;5021830;28;19922;-81
2024/03/14 11:50:24;;;;;;;;;;;;;;;11.94;73.22;98544.81;5020723;28;20396;-79
2024/03/14 11:52:53;;;;;;;;;;;;;;;12.00;73.68;98538.25;5020498;28;19943;-80
2024/03/14 11:55:19;;;;;;;;;;;;;;;12.15;73.13;98539.28;5022303;28;19928;-82
2024/03/14 11:57:47;;;;;;;;;;;;;;;12.10;73.68;98553.72;5023387;28;19921;-81
2024/03/14 12:00:20;;;;;;;;;;;;;;;12.17;74.30;98547.16;5025047;28;19928;-81
2024/03/14 12:02:46;;;;;;;;;;;;;;;12.20;72.01;98557.31;5028170;28;20003;-81
2024/03/14 12:05:19;;;;;;;;;;;;;;;12.40;75.29;98549.47;5024322;28;19928;-80
2024/03/14 12:07:46;;;;;;;;;;;;;;;12.35;74.36;98563.91;5024817;28;19921;-82
2024/03/14 12:10:11;;;;;;;;;;;;;;;12.48;74.17;98563.81;5026348;28;20012;-82
2024/03/14 12:12:37;;;;;;;;;;;;;;;12.45;71.87;98568.28;5023863;28;19968;-80
2024/03/14 12:15:03;;;;;;;;;;;;;;;12.44;72.13;98561.19;5021734;28;19986;-81
2024/03/14 12:17:28;;;;;;;;;;;;;;;12.43;71.84;98569.94;5024417;28;19921;-81
2024/03/14 12:19:54;;;;;;;;;;;;;;;12.43;73.97;98565.16;5027408;28;20329;-81
2024/03/14 12:22:21;;;;;;;;;;;;;;;12.14;81.45;98572.97;5023046;28;19960;-81
2024/03/14 12:24:57;;;;;;;;;;;;;;;11.69;85.62;98576.84;5025189;28;19928;-82
2024/03/14 12:27:22;;;;;;;;;;;;;;;11.49;90.58;98583.88;5023970;28;19929;-80
2024/03/14 12:29:48;;;;;;;;;;;;;;;11.33;88.92;98579.28;5021905;28;20321;-82
2024/03/14 12:32:16;;;;;;;;;;;;;;;11.43;92.08;98594.75;5026068;28;20043;-84
2024/03/14 12:34:42;;;;;;;;;;;;;;;11.46;84.90;98593.84;5017179;28;19926;-81
2024/03/14 12:37:12;;;;;;;;;;;;;;;11.52;84.96;98596.81;5023397;28;19924;-81
2024/03/14 12:39:38;;;;;;;;;;;;;;;11.54;80.87;98592.41;5020683;28;19965;-83
2024/03/14 12:42:05;;;;;;;;;;;;;;;11.73;80.47;98587.81;5023569;28;19979;-82
2024/03/14 12:44:30;;;;;;;;;;;;;;;11.91;79.73;98606.63;5024129;28;20357;-80
2024/03/14 12:46:55;;;;;;;;;;;;;;;11.99;75.17;98605.94;5022621;28;19921;-80